• Join FlightAware (Why Join?)
  • Login
  • US Flag GB Flag 
23:27 EDT


 

Airport Tracker/Info


-or-


 

Live Flight TrackerFlight Track Log ✈ AMF1026 ✈ 01-May-2013 ✈ KALB - KCVG

Flight Track Log - Related Links

Times and Time Zones

All times are in EDT time to prevent confusion due to time zone crossing. See the AMF1026 flight status page for this flight to view local times or setup timezone preferences in your user account.

Time Position Orientation Groundspeed Altitude Reporting Facility
EDT Latitude Longitude Course Direction KTS MPH feet Rate Location/Type
21:08 42.7339 -73.8081 192° South 134 154 1,000  Level Boston Center
21:09 42.6964 -73.8186 192° South 180 207 2,400 1,620 Climbing Boston Center
21:10 42.6664 -73.8800 236° Southwest 205 236 4,000 1,380 Climbing Boston Center
21:11 42.6428 -73.9389 241° Southwest 213 245 5,000 1,500 Climbing Boston Center
21:12 42.6686 -74.0186 294° West 204 235 6,800 1,560 Climbing Boston Center
21:13 42.6928 -74.0814 298° West 204 235 8,200 1,500 Climbing Boston Center
21:14 42.7189 -74.1611 294° West 210 242 9,800 1,380 Climbing Boston Center
21:15 42.7386 -74.2294 291° West 217 250 11,000 1,260 Climbing Boston Center
21:16 42.7433 -74.3203 274° West 217 250 12,400 1,200 Climbing Boston Center
21:17 42.7233 -74.3931 250° West 225 259 13,500 1,080 Climbing Boston Center
21:18 42.7008 -74.4856 252° West 230 265 14,600 1,020 Climbing Boston Center
21:19 42.6869 -74.5614 256° West 230 265 15,600 660 Climbing Boston Center
21:20 42.6603 -74.6536 249° West 241 277 16,000 180 Climbing Boston Center
21:21 42.6253 -74.7342 239° Southwest 265 305 16,000  Level Boston Center
21:22 42.5900 -74.8289 243° Southwest 277 319 16,000  Level Boston Center
21:23 42.5589 -74.9206 245° Southwest 282 325 16,000  Level Boston Center
21:24 42.5292 -75.0378 251° West 272 313 16,000  Level Boston Center
21:25 42.5042 -75.1269 249° West 266 306 16,000  Level Boston Center
21:27 42.4358 -75.3192 244° Southwest 269 310 16,000  Level New York Center
21:28 42.3969 -75.4064 239° Southwest 274 315 16,000  Level New York Center
21:29 42.3622 -75.4936 242° Southwest 274 315 16,000  Level New York Center
21:30 42.3253 -75.5836 241° Southwest 274 315 16,000  Level New York Center
21:31 42.2925 -75.6736 244° Southwest 274 315 16,000  Level New York Center
21:32 42.2619 -75.7611 245° Southwest 274 315 16,000  Level New York Center
21:33 42.2369 -75.8572 251° West 269 310 16,000  Level New York Center
21:34 42.2144 -75.9478 251° West 263 303 16,000  Level New York Center
21:35 42.1894 -76.0439 251° West 263 303 16,000  Level New York Center
21:36 42.1583 -76.1336 245° Southwest 268 308 16,000  Level New York Center
21:37 42.1311 -76.2264 248° West 268 308 16,000  Level New York Center
21:38 42.1019 -76.3164 246° West 268 308 16,000  Level New York Center
21:39 42.0728 -76.4061 246° West 268 308 16,000  Level New York Center
21:40 42.0436 -76.4931 246° West 268 308 16,000  Level New York Center
21:41 42.0100 -76.5850 244° Southwest 268 308 16,000  Level New York Center
21:42 41.9772 -76.6631 241° Southwest 274 315 16,000  Level New York Center
21:44 41.9019 -76.8694 244° Southwest 264 304 16,000  Level Cleveland Center
21:45 41.8653 -76.9581 241° Southwest 264 304 16,000  Level Cleveland Center
21:46 41.8325 -77.0464 244° Southwest 269 310 16,000  Level Cleveland Center
21:47 41.7939 -77.1433 242° Southwest 269 310 16,000  Level Cleveland Center
21:48 41.7611 -77.2314 244° Southwest 269 310 16,000  Level Cleveland Center
21:49 41.7281 -77.3194 243° Southwest 269 310 16,000  Level Cleveland Center
21:50 41.6972 -77.4100 246° West 269 310 16,000  Level Cleveland Center
21:51 41.6642 -77.5006 244° Southwest 269 310 16,000  Level Cleveland Center
21:52 41.6353 -77.5825 245° Southwest 274 315 16,000  Level Cleveland Center
21:53 41.6083 -77.6753 249° West 264 304 16,000  Level Cleveland Center
21:54 41.5856 -77.7681 252° West 264 304 16,000  Level Cleveland Center
21:55 41.5628 -77.8606 252° West 269 310 16,000  Level Cleveland Center
21:56 41.5294 -77.9481 243° Southwest 269 310 16,000  Level Cleveland Center
21:57 41.4897 -78.0328 238° Southwest 274 315 16,000  Level Cleveland Center
21:58 41.4500 -78.1175 238° Southwest 274 315 16,000  Level Cleveland Center
21:59 41.4119 -78.2019 239° Southwest 274 315 16,000  Level Cleveland Center
22:00 41.3803 -78.2750 240° Southwest 274 315 16,000  Level Cleveland Center
22:01 41.3406 -78.3733 242° Southwest 269 310 16,000  Level Cleveland Center
22:02 41.3025 -78.4575 239° Southwest 269 310 16,000  Level Cleveland Center
22:03 41.2664 -78.5417 240° Southwest 269 310 16,000  Level Cleveland Center
22:04 41.2325 -78.6228 241° Southwest 269 310 16,000  Level Cleveland Center
22:05 41.2047 -78.7147 248° West 269 310 16,000  Level Cleveland Center
22:06 41.1792 -78.8036 249° West 263 303 16,000  Level Cleveland Center
22:07 41.1597 -78.8953 254° West 263 303 16,000  Level Cleveland Center
22:08 41.1403 -78.9950 256° West 258 297 16,000  Level Cleveland Center
22:09 41.1247 -79.0781 256° West 258 297 16,000  Level Cleveland Center
22:10 41.1069 -79.1722 256° West 263 303 16,000  Level Cleveland Center
22:11 41.0894 -79.2636 256° West 263 303 16,000 -60 Level Cleveland Center
22:12 41.0717 -79.3547 256° West 258 297 15,900 -60 Descending Cleveland Center
22:13 41.0517 -79.4486 254° West 258 297 15,900  Level Cleveland Center
22:14 41.0317 -79.5372 253° West 258 297 15,900  Level Cleveland Center
22:15 41.0097 -79.6311 253° West 263 303 15,900  Level Cleveland Center
22:16 40.9792 -79.7194 245° Southwest 269 310 15,900  Level Cleveland Center
22:17 40.9464 -79.8081 244° Southwest 274 315 15,900  Level Cleveland Center
22:18 40.9197 -79.8961 248° West 274 315 15,900  Level Cleveland Center
22:19 40.8911 -79.9817 246° West 274 315 15,900  Level Cleveland Center
22:20 40.8603 -80.0697 245° Southwest 274 315 16,000  Climbing Cleveland Center
22:21 40.8336 -80.1550 248° West 269 310 16,000  Level Cleveland Center
22:22 40.8108 -80.2458 252° West 264 304 16,000  Level Cleveland Center
22:23 40.7778 -80.3281 242° Southwest 259 298 16,000  Level Cleveland Center
22:24 40.7361 -80.4214 240° Southwest 265 305 16,000  Level Cleveland Center
22:25 40.7008 -80.4928 237° Southwest 270 311 16,000  Level Cleveland Center
22:26 40.6572 -80.5694 233° Southwest 270 311 16,000  Level Cleveland Center
22:27 40.6175 -80.6486 237° Southwest 270 311 16,000  Level Cleveland Center
22:28 40.5736 -80.7281 234° Southwest 260 299 16,000  Level Cleveland Center
22:29 40.5317 -80.8044 234° Southwest 260 299 16,000  Level Cleveland Center
22:30 40.4900 -80.8778 233° Southwest 260 299 16,000  Level Cleveland Center
22:31 40.4458 -80.9569 234° Southwest 265 305 16,000  Level Cleveland Center
22:32 40.3997 -81.0303 230° Southwest 270 311 16,000  Level Cleveland Center
22:33 40.3536 -81.1033 230° Southwest 270 311 16,000  Level Cleveland Center
22:34 40.3053 -81.1739 228° Southwest 265 305 16,000  Level Cleveland Center
22:35 40.2592 -81.2469 230° Southwest 265 305 16,000  Level Cleveland Center
22:36 40.2106 -81.3197 229° Southwest 265 305 16,000  Level Cleveland Center
22:39 40.1050 -81.5019 233° Southwest 262 302 16,000  Level Indianapolis Center
22:40 40.0650 -81.5806 236° Southwest 258 297 16,000  Level Indianapolis Center
22:41 40.0281 -81.6608 239° Southwest 257 296 16,000  Level Indianapolis Center
22:42 39.9914 -81.7419 239° Southwest 256 295 16,000  Level Indianapolis Center
22:43 39.9575 -81.8306 244° Southwest 263 303 16,000  Level Indianapolis Center
22:44 39.9253 -81.9161 244° Southwest 262 302 16,000  Level Indianapolis Center
22:45 39.9069 -82.0072 255° West 259 298 16,000  Level Indianapolis Center
22:46 39.8897 -82.0992 256° West 260 299 16,000  Level Indianapolis Center
22:47 39.8639 -82.1881 249° West 260 299 16,000  Level Indianapolis Center
22:48 39.8419 -82.2789 253° West 260 299 16,000  Level Indianapolis Center
22:49 39.8172 -82.3842 253° West 260 299 16,000  Level Indianapolis Center
22:50 39.7939 -82.4736 251° West 259 298 16,000  Level Indianapolis Center
22:51 39.7689 -82.5619 250° West 258 297 16,000  Level Indianapolis Center
22:52 39.7436 -82.6511 250° West 259 298 16,000  Level Indianapolis Center
22:53 39.7158 -82.7372 247° West 256 295 16,000  Level Indianapolis Center
22:54 39.6906 -82.8253 250° West 258 297 16,000  Level Indianapolis Center
22:55 39.6647 -82.9136 249° West 258 297 16,000  Level Indianapolis Center
22:56 39.6386 -83.0025 249° West 260 299 16,000  Level Indianapolis Center
22:57 39.6133 -83.0903 250° West 258 297 16,000  Level Indianapolis Center
22:58 39.5867 -83.1781 249° West 258 297 16,000 -480 Level Indianapolis Center
22:59 39.5575 -83.2683 247° West 266 306 15,100 -1,080 Descending Indianapolis Center
23:00 39.5225 -83.3606 244° Southwest 279 321 13,900 -1,200 Descending Indianapolis Center
23:01 39.4994 -83.4558 253° West 274 315 12,700 -1,260 Descending Indianapolis Center
23:02 39.4778 -83.5525 254° West 277 319 11,400 -840 Descending Indianapolis Center
23:03 39.4583 -83.6461 255° West 267 307 11,000 -300 Descending Indianapolis Center
23:04 39.4414 -83.7400 257° West 265 305 10,900 -60 Descending Indianapolis Center
23:05 39.4219 -83.8336 255° West 270 311 10,900  Level Indianapolis Center
23:06 39.3875 -83.9183 242° Southwest 265 305 10,900  Level Indianapolis Center
23:07 39.3486 -84.0008 239° Southwest 265 305 10,900 -180 Level Indianapolis Center
23:08 39.3119 -84.0833 240° Southwest 263 303 10,600 -900 Descending Indianapolis Center
23:10 39.2783 -84.1694 243° Southwest 267 307 9,100 -1,380 Descending Indianapolis Center
23:11 39.2542 -84.2561 250° West 257 296 7,800 -1,620 Descending Indianapolis Center
23:12 39.2303 -84.3533 252° West 244 281 5,900 -1,680 Descending Indianapolis Center
23:13 39.2089 -84.4358 252° West 241 277 4,400 -1,440 Descending Indianapolis Center
23:14 39.1939 -84.5039 254° West 239 275 3,000 -660 Descending Indianapolis Center
23:15 39.1667 -84.6500 257° West 201 231 2,700 -360 Descending Cincinnati TRACON
23:16 39.1333 -84.6833 218° Southwest 125 144 2,100 -600 Descending Cincinnati TRACON
23:17 39.1000 -84.6833 180° South 108 124 1,500 -600 Descending Cincinnati TRACON
23:19 39.0488 -84.6678 247° West  Level Estimated
23:26 39.0488 -84.6678 247° West  Level Estimated